createdAt,value
2018-08-04T00:02:27.248Z,15.17
2018-08-04T00:04:55.995Z,14.53
2018-08-04T00:07:24.854Z,14.13
2018-08-04T00:09:53.649Z,14.27
2018-08-04T00:12:22.088Z,14.73
2018-08-04T00:14:50.748Z,15.27
2018-08-04T00:17:19.479Z,15.90
2018-08-04T00:19:48.090Z,14.70
2018-08-04T00:22:16.570Z,14.10
2018-08-04T00:24:45.343Z,16.50
2018-08-04T00:27:14.056Z,15.90
2018-08-04T00:29:42.726Z,17.20
2018-08-04T00:32:11.190Z,16.50
2018-08-04T00:34:39.895Z,16.60
2018-08-04T00:37:09.478Z,16.43
2018-08-04T00:39:38.118Z,16.07
2018-08-04T00:42:06.966Z,17.17
2018-08-04T00:44:36.056Z,16.60
2018-08-04T00:47:04.699Z,16.13
2018-08-04T00:49:33.611Z,17.30
2018-08-04T00:52:02.281Z,16.80
2018-08-04T00:54:31.117Z,16.73
2018-08-04T00:56:59.737Z,17.20
2018-08-04T00:59:28.430Z,18.00
2018-08-04T01:01:57.123Z,18.70
2018-08-04T01:04:25.913Z,15.77
2018-08-04T01:06:54.617Z,15.87
2018-08-04T01:09:23.255Z,15.23
2018-08-04T01:11:51.968Z,17.43
2018-08-04T01:14:20.655Z,17.23
2018-08-04T01:16:49.362Z,17.07
2018-08-04T01:19:18.158Z,17.03
2018-08-04T01:21:46.830Z,16.53
2018-08-04T01:24:15.493Z,15.97
2018-08-04T01:26:44.138Z,16.23
2018-08-04T01:29:12.668Z,16.43
2018-08-04T01:31:41.270Z,15.53
2018-08-04T01:34:09.884Z,16.53
2018-08-04T01:36:38.283Z,18.50
2018-08-04T01:39:09.090Z,17.10
2018-08-04T01:41:37.780Z,18.53
2018-08-04T01:44:06.223Z,20.53
2018-08-04T01:46:34.923Z,19.57
2018-08-04T01:49:03.584Z,19.13
2018-08-04T01:51:32.310Z,18.73
2018-08-04T01:54:00.971Z,18.97
2018-08-04T01:56:29.478Z,18.33
2018-08-04T01:58:58.195Z,18.10
2018-08-04T02:01:26.837Z,18.50
2018-08-04T02:03:55.471Z,18.87
2018-08-04T02:06:24.145Z,18.50
2018-08-04T02:08:52.825Z,18.90
2018-08-04T02:11:21.488Z,19.03
2018-08-04T02:13:50.200Z,17.30
2018-08-04T02:16:18.823Z,20.17
2018-08-04T02:18:47.475Z,18.50
2018-08-04T02:21:16.107Z,17.20
2018-08-04T02:23:44.848Z,16.97
2018-08-04T02:26:13.475Z,16.43
2018-08-04T02:28:42.098Z,16.67
2018-08-04T02:31:10.758Z,17.87
2018-08-04T02:33:39.245Z,17.67
2018-08-04T02:36:07.726Z,18.23
2018-08-04T02:38:36.451Z,17.53
2018-08-04T02:41:05.354Z,17.43
2018-08-04T02:43:34.003Z,18.70
2018-08-04T02:46:02.699Z,17.03
2018-08-04T02:48:31.325Z,17.60
2018-08-04T02:50:59.967Z,17.43
2018-08-04T02:53:28.615Z,16.87
2018-08-04T02:55:57.235Z,18.87
2018-08-04T02:58:25.937Z,17.10
2018-08-04T03:00:54.528Z,17.67
2018-08-04T03:03:23.144Z,17.93
2018-08-04T03:05:51.748Z,18.20
2018-08-04T03:08:20.246Z,19.23
2018-08-04T03:10:48.862Z,20.47
2018-08-04T03:13:17.515Z,19.43
2018-08-04T03:15:46.173Z,17.33
2018-08-04T03:18:14.785Z,18.43
2018-08-04T03:20:43.383Z,19.57
2018-08-04T03:23:12.025Z,21.10
2018-08-04T03:25:40.647Z,19.60
2018-08-04T03:28:09.255Z,16.83
2018-08-04T03:30:37.883Z,17.13
2018-08-04T03:33:06.427Z,17.23
2018-08-04T03:35:35.068Z,18.37
2018-08-04T03:38:03.668Z,18.57
2018-08-04T03:40:32.343Z,19.63
2018-08-04T03:43:00.983Z,19.10
2018-08-04T03:45:29.650Z,18.97
2018-08-04T03:47:58.358Z,19.43
2018-08-04T03:50:26.995Z,19.30
2018-08-04T03:52:55.628Z,19.60
2018-08-04T03:55:24.199Z,19.17
2018-08-04T03:57:52.805Z,19.50
2018-08-04T04:00:21.250Z,18.00
2018-08-04T04:02:49.917Z,18.87
2018-08-04T04:05:18.587Z,19.40
2018-08-04T04:07:47.289Z,19.20
2018-08-04T04:10:16.017Z,19.77
2018-08-04T04:12:44.650Z,21.73
2018-08-04T04:15:13.255Z,20.13
2018-08-04T04:17:48.670Z,20.83
2018-08-04T04:20:18.563Z,20.80
2018-08-04T04:22:47.243Z,20.27
2018-08-04T04:25:15.870Z,20.50
2018-08-04T04:27:44.610Z,20.63
2018-08-04T04:30:13.882Z,22.40
2018-08-04T04:32:42.482Z,19.80
2018-08-04T04:35:11.111Z,21.33
2018-08-04T04:37:39.908Z,18.73
2018-08-04T04:40:08.558Z,17.03
2018-08-04T04:42:37.158Z,16.63
2018-08-04T04:45:05.903Z,17.53
2018-08-04T04:47:34.550Z,17.10
2018-08-04T04:50:03.306Z,18.10
2018-08-04T04:52:31.968Z,17.10
2018-08-04T04:55:00.603Z,16.30
2018-08-04T04:57:29.273Z,16.80
2018-08-04T04:59:57.933Z,16.73
2018-08-04T05:02:26.358Z,17.50
2018-08-04T05:04:54.991Z,17.53
2018-08-04T05:07:23.636Z,23.93
2018-08-04T05:09:52.355Z,18.03
2018-08-04T05:12:20.993Z,19.10
2018-08-04T05:14:49.664Z,20.67
2018-08-04T05:17:18.366Z,47.73
2018-08-04T05:19:47.030Z,37.40
2018-08-04T05:22:15.696Z,37.43
2018-08-04T05:24:44.168Z,24.17
2018-08-04T05:27:12.838Z,19.63
2018-08-04T05:29:41.664Z,17.27
2018-08-04T05:32:10.472Z,17.53
2018-08-04T05:34:39.139Z,16.47
2018-08-04T05:37:07.951Z,16.63
2018-08-04T05:39:36.626Z,16.80
2018-08-04T05:42:05.517Z,16.23
2018-08-04T05:44:34.171Z,16.17
2018-08-04T05:47:03.656Z,16.48
2018-08-04T05:49:32.336Z,17.42
2018-08-04T05:52:01.166Z,16.60
2018-08-04T05:54:29.628Z,15.28
2018-08-04T05:56:58.349Z,14.40
2018-08-04T05:59:27.046Z,15.55
2018-08-04T06:01:55.716Z,14.00
2018-08-04T06:04:24.521Z,14.05
2018-08-04T06:06:53.384Z,15.28
2018-08-04T06:09:22.103Z,15.83
2018-08-04T06:11:50.800Z,16.77
2018-08-04T06:14:19.483Z,16.12
2018-08-04T06:16:48.140Z,17.32
2018-08-04T06:19:16.799Z,15.78
2018-08-04T06:21:45.516Z,15.95
2018-08-04T06:24:14.186Z,17.07
2018-08-04T06:26:42.925Z,15.30
2018-08-04T06:29:11.720Z,15.30
2018-08-04T06:31:40.383Z,16.07
2018-08-04T06:34:09.161Z,14.98
2018-08-04T06:36:37.790Z,15.70
2018-08-04T06:39:07.485Z,13.53
2018-08-04T06:41:36.092Z,12.85
2018-08-04T06:44:04.846Z,12.40
2018-08-04T06:46:33.491Z,11.88
2018-08-04T06:49:02.679Z,11.20
2018-08-04T06:51:31.398Z,11.20
2018-08-04T06:54:00.106Z,10.95
2018-08-04T06:56:29.696Z,11.38
2018-08-04T06:58:58.318Z,10.60
2018-08-04T07:01:26.816Z,10.95
2018-08-04T07:03:55.448Z,10.75
2018-08-04T07:06:24.078Z,10.40
2018-08-04T07:08:52.696Z,10.43
2018-08-04T07:11:21.376Z,10.30
2018-08-04T07:13:50.213Z,10.45
2018-08-04T07:16:18.971Z,11.28
2018-08-04T07:18:47.594Z,10.60
2018-08-04T07:21:16.241Z,10.30
2018-08-04T07:23:45.007Z,10.70
2018-08-04T07:26:13.678Z,11.45
2018-08-04T07:28:42.495Z,10.55
2018-08-04T07:31:11.335Z,10.30
2018-08-04T07:33:39.811Z,9.90
2018-08-04T07:36:08.614Z,10.90
2018-08-04T07:38:38.186Z,9.75
2018-08-04T07:41:06.906Z,10.75
2018-08-04T07:43:35.570Z,10.48
2018-08-04T07:46:04.306Z,9.85
2018-08-04T07:48:32.891Z,9.85
2018-08-04T07:51:01.876Z,9.73
2018-08-04T07:53:30.645Z,9.68
2018-08-04T07:55:59.411Z,9.58
2018-08-04T07:58:28.145Z,9.45
2018-08-04T08:00:56.810Z,9.50
2018-08-04T08:03:25.470Z,9.10
2018-08-04T08:05:54.003Z,8.70
2018-08-04T08:08:22.692Z,9.38
2018-08-04T08:10:51.489Z,9.10
2018-08-04T08:13:20.098Z,8.98
2018-08-04T08:15:48.796Z,9.00
2018-08-04T08:18:17.511Z,9.18
2018-08-04T08:20:46.223Z,12.68
2018-08-04T08:23:14.945Z,11.45
2018-08-04T08:26:08.627Z,11.55
2018-08-04T08:28:37.723Z,8.60
2018-08-04T08:31:06.587Z,8.48
2018-08-04T08:33:35.623Z,8.75
2018-08-04T08:36:04.467Z,8.05
2018-08-04T08:38:33.231Z,7.53
2018-08-04T08:41:01.972Z,7.78
2018-08-04T08:43:30.777Z,7.87
2018-08-04T08:45:59.796Z,8.33
2018-08-04T08:48:28.535Z,8.80
2018-08-04T08:50:57.264Z,8.18
2018-08-04T08:53:26.047Z,8.15
2018-08-04T08:55:54.721Z,8.70
2018-08-04T08:58:23.444Z,8.05
2018-08-04T09:00:52.202Z,8.15
2018-08-04T09:03:20.948Z,8.55
2018-08-04T09:05:50.216Z,8.10
2018-08-04T09:08:18.859Z,8.48
2018-08-04T09:10:47.553Z,7.92
2018-08-04T09:13:16.296Z,8.48
2018-08-04T09:15:44.960Z,8.25
2018-08-04T09:18:13.651Z,8.43
2018-08-04T09:20:42.479Z,8.30
2018-08-04T09:23:11.269Z,8.18
2018-08-04T09:25:39.984Z,8.23
2018-08-04T09:28:08.753Z,8.13
2018-08-04T09:30:37.512Z,8.40
2018-08-04T09:33:06.626Z,8.33
2018-08-04T09:35:35.374Z,8.58
2018-08-04T09:38:04.111Z,9.28
2018-08-04T09:40:32.773Z,8.23
2018-08-04T09:43:01.471Z,8.38
2018-08-04T09:45:30.123Z,8.45
2018-08-04T09:47:58.785Z,8.13
2018-08-04T09:50:27.521Z,8.20
2018-08-04T09:52:56.238Z,8.60
2018-08-04T09:55:24.914Z,8.18
2018-08-04T09:57:53.709Z,8.23
2018-08-04T10:00:28.066Z,9.00
2018-08-04T10:02:56.830Z,8.98
2018-08-04T10:05:25.641Z,9.08
2018-08-04T10:07:54.345Z,8.53
2018-08-04T10:10:23.041Z,8.95
2018-08-04T10:12:51.569Z,8.45
2018-08-04T10:15:20.286Z,8.63
2018-08-04T10:17:49.021Z,8.53
2018-08-04T10:20:17.754Z,8.93
2018-08-04T10:22:46.507Z,9.70
2018-08-04T10:25:15.231Z,9.38
2018-08-04T10:27:43.963Z,9.93
2018-08-04T10:30:12.966Z,9.38
2018-08-04T10:32:41.631Z,8.78
2018-08-04T10:35:10.454Z,9.33
2018-08-04T10:37:39.149Z,9.65
2018-08-04T10:40:07.976Z,9.58
2018-08-04T10:42:36.722Z,9.70
2018-08-04T10:45:06.563Z,9.43
2018-08-04T10:47:35.326Z,9.88
2018-08-04T10:50:04.632Z,9.28
2018-08-04T10:52:33.986Z,9.95
2018-08-04T10:55:02.684Z,9.50
2018-08-04T10:57:31.389Z,9.55
2018-08-04T11:00:00.068Z,9.55
2018-08-04T11:02:28.969Z,9.55
2018-08-04T11:04:58.652Z,9.50
2018-08-04T11:07:27.656Z,9.95
2018-08-04T11:09:56.330Z,9.50
2018-08-04T11:12:25.029Z,9.78
2018-08-04T11:14:53.663Z,9.93
2018-08-04T11:17:22.588Z,10.28
2018-08-04T11:19:51.261Z,9.40
2018-08-04T11:22:19.976Z,9.40
2018-08-04T11:24:48.598Z,10.25
2018-08-04T11:27:17.242Z,10.38
2018-08-04T11:29:46.366Z,9.93
2018-08-04T11:32:15.084Z,9.58
2018-08-04T11:34:43.493Z,10.35
2018-08-04T11:37:12.446Z,9.65
2018-08-04T11:39:41.118Z,10.30
2018-08-04T11:42:09.800Z,9.60
2018-08-04T11:44:38.601Z,9.18
2018-08-04T11:47:07.289Z,8.85
2018-08-04T11:49:36.058Z,9.90
2018-08-04T11:52:04.774Z,9.68
2018-08-04T11:54:33.546Z,9.95
2018-08-04T11:57:02.325Z,9.40
2018-08-04T11:59:31.799Z,9.78
2018-08-04T12:02:01.946Z,10.08
2018-08-04T12:04:30.754Z,9.38
2018-08-04T12:06:59.429Z,9.23
2018-08-04T12:09:28.197Z,9.25
2018-08-04T12:11:57.208Z,9.40
2018-08-04T12:14:25.981Z,8.75
2018-08-04T12:16:55.251Z,8.58
2018-08-04T12:19:24.530Z,8.98
2018-08-04T12:21:53.448Z,9.00
2018-08-04T12:24:22.333Z,8.95
2018-08-04T12:26:51.606Z,9.63
2018-08-04T12:29:20.212Z,8.90
2018-08-04T12:31:49.034Z,9.70
2018-08-04T12:34:18.498Z,8.90
2018-08-04T12:36:47.358Z,9.68
2018-08-04T12:39:16.522Z,9.60
2018-08-04T12:41:46.760Z,10.72
2018-08-04T12:44:15.781Z,10.23
2018-08-04T12:46:44.316Z,10.43
2018-08-04T12:49:13.034Z,9.83
2018-08-04T12:51:41.521Z,10.43
2018-08-04T12:54:10.221Z,10.10
2018-08-04T12:56:38.952Z,10.32
2018-08-04T12:59:07.825Z,10.00
2018-08-04T13:01:37.166Z,10.20
2018-08-04T13:04:06.293Z,10.72
2018-08-04T13:06:35.979Z,9.75
2018-08-04T13:09:07.827Z,10.00
2018-08-04T13:11:37.689Z,10.35
2018-08-04T13:14:06.468Z,9.90
2018-08-04T13:16:35.303Z,9.93
2018-08-04T13:19:04.113Z,10.30
2018-08-04T13:21:32.909Z,9.58
2018-08-04T13:24:01.705Z,9.65
2018-08-04T13:26:30.457Z,9.55
2018-08-04T13:28:59.221Z,9.25
2018-08-04T13:31:28.024Z,9.73
2018-08-04T13:33:56.912Z,9.98
2018-08-04T13:36:26.581Z,10.03
2018-08-04T13:38:56.521Z,10.23
2018-08-04T13:41:25.826Z,9.48
2018-08-04T13:43:54.606Z,9.40
2018-08-04T13:46:23.716Z,9.80
2018-08-04T13:48:52.613Z,8.95
2018-08-04T13:51:21.400Z,10.15
2018-08-04T13:53:50.064Z,11.15
2018-08-04T13:56:18.824Z,12.05
2018-08-04T13:58:47.496Z,14.03
2018-08-04T14:01:16.136Z,13.13
2018-08-04T14:03:45.295Z,13.20
2018-08-04T14:06:14.140Z,12.18
2018-08-04T14:08:43.199Z,12.03
2018-08-04T14:11:11.913Z,12.55
2018-08-04T14:13:40.591Z,11.85
2018-08-04T14:16:10.666Z,11.60
2018-08-04T14:18:39.428Z,10.32
2018-08-04T14:21:08.176Z,10.35
2018-08-04T14:23:36.918Z,12.43
2018-08-04T14:26:05.532Z,10.78
2018-08-04T14:28:34.286Z,8.53
2018-08-04T14:31:03.006Z,6.80
2018-08-04T14:33:32.564Z,5.87
2018-08-04T14:36:01.477Z,6.97
2018-08-04T14:38:29.981Z,8.23
2018-08-04T14:40:58.613Z,8.57
2018-08-04T14:43:27.436Z,10.67
2018-08-04T14:45:56.101Z,11.53
2018-08-04T14:48:25.591Z,12.30
2018-08-04T14:50:54.763Z,14.27
2018-08-04T14:53:24.354Z,15.30
2018-08-04T14:55:53.485Z,14.23
2018-08-04T14:58:23.405Z,20.37
2018-08-04T15:00:52.455Z,18.13
2018-08-04T15:03:21.270Z,15.87
2018-08-04T15:05:50.723Z,12.73
2018-08-04T15:08:19.465Z,11.87
2018-08-04T15:10:48.201Z,11.60
2018-08-04T15:13:16.793Z,10.93
2018-08-04T15:15:45.556Z,11.67
2018-08-04T15:18:13.994Z,12.97
2018-08-04T15:20:42.610Z,15.47
2018-08-04T15:23:11.238Z,13.90
2018-08-04T15:25:40.375Z,16.07
2018-08-04T15:28:08.899Z,17.90
2018-08-04T15:30:37.573Z,17.53
2018-08-04T15:33:06.313Z,20.00
2018-08-04T15:35:35.011Z,15.53
2018-08-04T15:38:04.118Z,17.43
2018-08-04T15:40:32.798Z,17.87
2018-08-04T15:43:01.444Z,18.37
2018-08-04T15:45:30.125Z,18.57
2018-08-04T15:47:58.960Z,13.90
2018-08-04T15:50:27.619Z,14.30
2018-08-04T15:52:56.278Z,14.77
2018-08-04T15:55:25.043Z,14.53
2018-08-04T15:57:53.580Z,15.43
2018-08-04T16:00:22.286Z,17.07
2018-08-04T16:02:50.998Z,16.13
2018-08-04T16:05:19.715Z,14.00
2018-08-04T16:07:48.353Z,15.10
2018-08-04T16:10:17.153Z,14.53
2018-08-04T16:12:45.657Z,15.47
2018-08-04T16:15:14.358Z,15.63
2018-08-04T16:17:43.063Z,14.53
2018-08-04T16:20:14.456Z,15.10
2018-08-04T16:22:43.656Z,14.70
2018-08-04T16:25:12.736Z,13.63
2018-08-04T16:27:42.833Z,14.13
2018-08-04T16:30:11.666Z,15.07
2018-08-04T16:32:40.960Z,13.73
2018-08-04T16:35:09.854Z,14.20
2018-08-04T16:37:38.548Z,15.97
2018-08-04T16:40:07.238Z,16.93
2018-08-04T16:42:36.118Z,15.57
2018-08-04T16:45:05.472Z,15.60
2018-08-04T16:47:34.918Z,16.13
2018-08-04T16:50:04.768Z,16.53
2018-08-04T16:52:33.575Z,15.33
2018-08-04T16:55:02.332Z,15.33
2018-08-04T16:57:31.617Z,15.40
2018-08-04T17:00:00.644Z,16.43
2018-08-04T17:02:29.355Z,15.53
2018-08-04T17:04:58.048Z,14.90
2018-08-04T17:07:26.670Z,14.90
2018-08-04T17:09:56.036Z,16.33
2018-08-04T17:12:24.780Z,15.47
2018-08-04T17:14:53.226Z,13.00
2018-08-04T17:17:21.986Z,14.17
2018-08-04T17:19:50.738Z,13.43
2018-08-04T17:22:20.369Z,13.73
2018-08-04T17:24:49.059Z,16.53
2018-08-04T17:27:17.703Z,14.97
2018-08-04T17:29:46.546Z,15.63
2018-08-04T17:32:15.409Z,14.13
2018-08-04T17:34:44.154Z,14.67
2018-08-04T17:37:12.877Z,15.07
2018-08-04T17:39:41.591Z,16.07
2018-08-04T17:42:11.203Z,15.33
2018-08-04T17:44:39.686Z,16.53
2018-08-04T17:47:08.215Z,15.77
2018-08-04T17:49:36.961Z,15.30
2018-08-04T17:52:05.546Z,15.73
2018-08-04T17:54:34.395Z,14.27
2018-08-04T17:57:03.262Z,14.90
2018-08-04T17:59:31.944Z,15.60
2018-08-04T18:02:00.711Z,16.60
2018-08-04T18:04:30.111Z,16.37
2018-08-04T18:06:58.838Z,15.67
2018-08-04T18:09:27.596Z,16.17
2018-08-04T18:11:56.284Z,16.30
2018-08-04T18:14:24.980Z,16.77
2018-08-04T18:16:53.758Z,16.23
2018-08-04T18:19:22.512Z,17.17
2018-08-04T18:21:50.958Z,17.80
2018-08-04T18:24:19.748Z,17.67
2018-08-04T18:26:48.710Z,18.47
2018-08-04T18:29:17.531Z,17.53
2018-08-04T18:31:46.329Z,16.47
2018-08-04T18:34:15.229Z,15.73
2018-08-04T18:36:44.071Z,15.67
2018-08-04T18:39:12.833Z,15.70
2018-08-04T18:41:41.563Z,15.33
2018-08-04T18:44:10.290Z,15.67
2018-08-04T18:46:39.188Z,14.97
2018-08-04T18:49:09.016Z,16.37
2018-08-04T18:51:37.718Z,16.50
2018-08-04T18:54:06.722Z,15.77
2018-08-04T18:56:35.414Z,15.73
2018-08-04T18:59:04.208Z,13.40
2018-08-04T19:01:33.685Z,14.70
2018-08-04T19:04:02.471Z,17.40
2018-08-04T19:06:31.202Z,18.47
2018-08-04T19:09:00.636Z,19.00
2018-08-04T19:11:29.536Z,20.03
2018-08-04T19:13:58.360Z,19.27
2018-08-04T19:16:27.119Z,19.73
2018-08-04T19:18:55.923Z,19.50
2018-08-04T19:21:24.758Z,19.67
2018-08-04T19:23:53.739Z,20.43
2018-08-04T19:26:22.836Z,18.70
2018-08-04T19:28:51.728Z,18.73
2018-08-04T19:31:20.493Z,18.43
2018-08-04T19:33:49.429Z,18.77
2018-08-04T19:36:19.200Z,18.40
2018-08-04T19:38:47.998Z,18.60
2018-08-04T19:41:17.073Z,18.57
2018-08-04T19:43:45.741Z,19.40
2018-08-04T19:46:14.431Z,18.63
2018-08-04T19:48:43.198Z,18.80
2018-08-04T19:51:11.986Z,18.33
2018-08-04T19:53:40.909Z,17.93
2018-08-04T19:56:10.457Z,18.93
2018-08-04T19:58:39.271Z,19.40
2018-08-04T20:01:08.139Z,20.93
2018-08-04T20:03:36.658Z,20.70
2018-08-04T20:06:05.571Z,20.43
2018-08-04T20:08:34.480Z,20.17
2018-08-04T20:11:03.301Z,21.70
2018-08-04T20:13:32.040Z,22.50
2018-08-04T20:16:01.117Z,22.27
2018-08-04T20:18:29.817Z,22.10
2018-08-04T20:20:58.633Z,22.80
2018-08-04T20:23:27.338Z,20.37
2018-08-04T20:25:55.940Z,17.70
2018-08-04T20:28:25.171Z,17.30
2018-08-04T20:30:54.629Z,19.53
2018-08-04T20:33:24.438Z,20.10
2018-08-04T20:35:53.309Z,20.23
2018-08-04T20:38:22.001Z,22.20
2018-08-04T20:40:51.401Z,21.97
2018-08-04T20:43:20.165Z,23.00
2018-08-04T20:45:49.000Z,21.80
2018-08-04T20:48:17.808Z,21.17
2018-08-04T20:50:46.583Z,20.27
2018-08-04T20:53:15.491Z,19.63
2018-08-04T20:55:44.224Z,21.57
2018-08-04T20:58:13.073Z,20.70
2018-08-04T21:00:46.482Z,20.43
2018-08-04T21:03:15.561Z,22.57
2018-08-04T21:05:44.450Z,21.23
2018-08-04T21:08:13.665Z,21.47
2018-08-04T21:10:42.451Z,20.13
2018-08-04T21:13:11.172Z,21.87
2018-08-04T21:15:39.819Z,23.60
2018-08-04T21:18:08.538Z,20.17
2018-08-04T21:20:37.400Z,21.20
2018-08-04T21:23:06.396Z,21.07
2018-08-04T21:25:35.073Z,20.60
2018-08-04T21:28:03.943Z,23.43
2018-08-04T21:30:32.910Z,24.07
2018-08-04T21:33:01.572Z,24.17
2018-08-04T21:35:30.318Z,25.07
2018-08-04T21:37:59.666Z,25.90
2018-08-04T21:40:28.437Z,24.23
2018-08-04T21:42:57.155Z,24.30
2018-08-04T21:45:25.718Z,26.77
2018-08-04T21:47:54.601Z,25.77
2018-08-04T21:50:23.376Z,24.73
2018-08-04T21:52:52.206Z,25.40
2018-08-04T21:55:21.810Z,26.53
2018-08-04T21:57:50.410Z,27.77
2018-08-04T22:00:20.079Z,26.03
2018-08-04T22:02:58.721Z,26.57
2018-08-04T22:05:28.251Z,25.80
2018-08-04T22:08:13.569Z,34.40
2018-08-04T22:10:43.311Z,27.23
2018-08-04T22:13:12.328Z,33.57
2018-08-04T22:15:41.094Z,34.33
2018-08-04T22:18:09.791Z,33.57
2018-08-04T22:20:38.533Z,42.70
2018-08-04T22:23:07.251Z,27.20
2018-08-04T22:25:36.051Z,27.00
2018-08-04T22:28:05.086Z,34.10
2018-08-04T22:30:33.768Z,30.47
2018-08-04T22:33:02.460Z,29.23
2018-08-04T22:35:31.126Z,30.60
2018-08-04T22:37:59.770Z,25.57
2018-08-04T22:40:28.305Z,28.53
2018-08-04T22:42:57.001Z,35.57
2018-08-04T22:45:52.343Z,34.73
2018-08-04T22:48:21.680Z,29.30
2018-08-04T22:50:50.520Z,27.00
2018-08-04T22:53:20.079Z,30.67
2018-08-04T22:55:48.920Z,24.17
2018-08-04T22:58:17.468Z,25.40
2018-08-04T23:00:46.188Z,24.47
2018-08-04T23:03:15.438Z,26.50
2018-08-04T23:05:44.210Z,25.07
2018-08-04T23:08:13.400Z,21.67
2018-08-04T23:10:42.371Z,21.83
2018-08-04T23:13:11.964Z,20.37
2018-08-04T23:15:40.808Z,18.73
2018-08-04T23:18:09.814Z,18.73
2018-08-04T23:20:38.510Z,17.80
2018-08-04T23:23:08.627Z,19.57
2018-08-04T23:25:37.322Z,20.07
2018-08-04T23:28:06.213Z,17.67
2018-08-04T23:30:34.921Z,18.97
2018-08-04T23:33:03.648Z,22.43
2018-08-04T23:35:32.373Z,20.67
2018-08-04T23:38:01.088Z,21.07
2018-08-04T23:40:29.765Z,21.47
2018-08-04T23:42:58.491Z,21.70
2018-08-04T23:45:27.268Z,19.47
2018-08-04T23:47:56.010Z,20.07
2018-08-04T23:50:24.860Z,20.30
2018-08-04T23:52:53.615Z,21.57
2018-08-04T23:55:22.396Z,20.17
2018-08-04T23:57:51.096Z,20.73
